Élőkép

Információk

Albatrosz Repülő Egyesület
8000 Székesfehérvár,
Radványi utca 6.

Adószám:
19092908-2-07

Bankszámla szám:
Budapest Bank
10102952-01361819-00000001

Telefon: +36 30 9598-897

Telephey: Börgönd repülőtér

Börgöndi repülõtér

LHBP METAR/TAF

[source: ADDS]
METAR
TAF LHBP 210500Z 2106/2206 32007KT 9999 SCT020 BKN080 TEMPO 2106/2110 3000 -RA -SHRA BKN008 OVC060 BECMG 2110/2113 CAVOK BECMG 2113/2116 18004KT BECMG 2120/2123 SCT030 OVC080 BECMG 2123/2202 4000 RA SHRA BKN010 OVC060 TAF
TAF LHBP 210500Z 2106/2206 32007KT 9999 SCT020 BKN080 TEMPO 2106/2110 3000 -RA -SHRA BKN008 OVC060 BECMG 2110/2113 CAVOK BECMG 2113/2116 18004KT BECMG 2120/2123 SCT030 OVC080 BECMG 2123/2202 4000 RA SHRA BKN010 OVC060 =
SR / SS: 05:15 / 15:49 UTC (Börgönd 2014-10-21)
Hungarian Chinese (Simplified) Croatian Czech English Finnish French German Hebrew Italian Japanese Polish Portuguese Romanian Russian Serbian Slovak Slovenian Spanish

Belépés tagoknak